Biotrans — JWPN — position and weather

sailwx.info

Track history (hours):
 
Tides and Currents Weather Stations Pressure Air Temp Water Temp Dewpoint Dewpoint Depression Visibility Wind Speed Wind Dir Waves Ship Positions

Biotrans

Last reported at 2015-Mar-30 09:31 UTC. Time now 2015-Mar-31 12:43 UTC.
Position N 67°52' E 014°43'.

Length 55 m; draft 5.5 m.

Type: Cargo ship. MMSI: 259260000.

Date/timePositionNaut miles runAvg speedWind from/ knotsBaromVisibWave heightAir tempDewpointWater temp
2015-Mar-30 09:31N 67°52' E 014°43'8 8.6
2015-Mar-30 08:34N 67°45' E 014°32'9 8.6
2015-Mar-30 07:33N 67°37' E 014°31'9 8.6
2015-Mar-30 06:33N 67°28' E 014°28'9 8.7
2015-Mar-30 05:34N 67°20' E 014°20'9 8.8
2015-Mar-30 04:33N 67°13' E 014°07'9 8.9
2015-Mar-30 03:34N 67°05' E 013°56'9 8.7
2015-Mar-30 02:33N 66°60' E 013°38'33 8.3
2015-Mar-29 22:33N 66°30' E 012°59'9 8.4
2015-Mar-29 21:29N 66°21' E 012°58'1 0.1
2015-Mar-29 09:10N 66°20' E 012°56'32 8.4
2015-Mar-29 05:25N 66°51' E 013°18'8 8.3
2015-Mar-29 04:31N 66°57' E 013°29'10 8.9
2015-Mar-29 03:25N 67°02' E 013°49'8 8.8
2015-Mar-29 02:33N 67°08' E 014°02'9 9.0
2015-Mar-29 01:34N 67°16' E 014°13'9 9.3
2015-Mar-29 00:34N 67°24' E 014°26'9 9.1
2015-Mar-28 23:31N 67°33' E 014°30'9 9.0
2015-Mar-28 22:33N 67°42' E 014°31'6 0.2
2015-Mar-27 23:05N 67°48' E 014°32'510.2
2015-Mar-27 22:33N 67°43' E 014°31'1010.1
2015-Mar-27 21:33N 67°33' E 014°30'1010.2
2015-Mar-27 20:33N 67°23' E 014°25'5 5.3
2015-Mar-27 19:34N 67°17' E 014°23'0 0.0
2015-Mar-27 18:34N 67°17' E 014°23'4 4.4
2015-Mar-27 17:34N 67°15' E 014°14'1010.3
2015-Mar-27 16:33N 67°06' E 013°59'1010.1
2015-Mar-27 15:33N 66°60' E 013°39'12 9.6
2015-Mar-27 14:21N 66°51' E 013°19'2010.0
2015-Mar-27 12:20N 66°32' E 012°60'810.0
2015-Mar-27 11:34N 66°25' E 012°59'2310.0
2015-Mar-27 09:18N 66°04' E 012°39'48 9.5
2015-Mar-27 04:15N 65°18' E 011°60'710.3
2015-Mar-27 03:33N 65°12' E 011°52'1010.1
2015-Mar-27 02:33N 65°02' E 011°43'10 9.7
2015-Mar-27 01:33N 64°56' E 011°26'1010.2
2015-Mar-27 00:33N 64°49' E 011°09'65 8.9
2015-Mar-26 17:17N 63°53' E 009°52'58 1.9
2015-Mar-25 10:13N 64°43' E 010°58'6 9.5
2015-Mar-25 09:33N 64°48' E 011°07'9 8.8
2015-Mar-25 08:34N 64°54' E 011°22'9 9.0
2015-Mar-25 07:33N 65°00' E 011°38'9 8.7
2015-Mar-25 06:32N 65°08' E 011°49'72 3.1
2015-Mar-24 07:17N 66°17' E 012°38'7 9.1
2015-Mar-24 06:34N 66°20' E 012°52'10 8.0
2015-Mar-24 05:19N 66°30' E 012°59'26 8.3
2015-Mar-24 02:09N 66°54' E 013°25'4 7.4
2015-Mar-24 01:34N 66°58' E 013°30'9 8.2
2015-Mar-24 00:31N 67°02' E 013°49'9 9.0
2015-Mar-23 23:33N 67°09' E 014°02'10 9.9
2015-Mar-23 22:34N 67°18' E 014°16'10 9.6
2015-Mar-23 21:34N 67°26' E 014°27'12 9.9
2015-Mar-23 20:24N 67°38' E 014°31'8 9.0
2015-Mar-23 19:29N 67°46' E 014°32'8 8.3
2015-Mar-23 18:34N 67°52' E 014°43'9 8.5
2015-Mar-23 17:34N 68°01' E 014°46'9 8.5
2015-Mar-23 16:31N 68°09' E 014°51'16 0.7
2015-Mar-22 19:07N 67°54' E 014°44'5 8.6
2015-Mar-22 18:34N 67°50' E 014°36'8 7.8
2015-Mar-22 17:33N 67°42' E 014°31'6 6.2
2015-Mar-22 16:33N 67°37' E 014°41'9 7.0
2015-Mar-22 15:14N 67°36' E 015°05'5 7.2
2015-Mar-22 14:33N 67°33' E 015°14'2 1.7
2015-Mar-22 13:32N 67°32' E 015°19'8 8.6
2015-Mar-22 12:34N 67°35' E 014°58'10 9.5
2015-Mar-22 11:34N 67°30' E 014°38'9 8.6
2015-Mar-22 10:34N 67°23' E 014°25'9 8.7
2015-Mar-22 09:34N 67°15' E 014°13'9 8.6
2015-Mar-22 08:33N 67°08' E 014°01'4 3.8
2015-Mar-22 07:27N 67°06' E 013°52'10 7.7
2015-Mar-22 06:11N 66°58' E 013°37'25 8.1
2015-Mar-22 03:05N 66°36' E 013°04'6 7.8
2015-Mar-22 02:16N 66°30' E 012°58'6 9.2
2015-Mar-22 01:34N 66°24' E 012°58'93 7.7
2015-Mar-21 13:32N 64°59' E 011°26'3 3.2
2015-Mar-21 12:34N 64°57' E 011°22'0 0.0
2015-Mar-21 11:34N 64°57' E 011°22'0 0.0
2015-Mar-21 10:34N 64°57' E 011°22'0 0.1
2015-Mar-21 09:34N 64°57' E 011°22'2 1.6
2015-Mar-21 08:34N 64°55' E 011°21'7 7.3
2015-Mar-21 07:33N 64°50' E 011°10'70 3.6
2015-Mar-20 12:05N 63°51' E 009°40'  
Track history (hours):
 
Tides and Currents Weather Stations Pressure Air Temp Water Temp Dewpoint Dewpoint Depression Visibility Wind Speed Wind Dir Waves Ship Positions

Biotrans

Last reported at 2015-Mar-30 09:31 UTC. Time now 2015-Mar-31 12:43 UTC.
Position N 67°52' E 014°43'.

Length 55 m; draft 5.5 m.

Type: Cargo ship. MMSI: 259260000.

Date/timePositionNaut miles runAvg speedWind from/ knotsBaromVisibWave heightAir tempDewpointWater temp
2015-Mar-30 09:31N 67°52' E 014°43'8 8.6
2015-Mar-30 08:34N 67°45' E 014°32'9 8.6
2015-Mar-30 07:33N 67°37' E 014°31'9 8.6
2015-Mar-30 06:33N 67°28' E 014°28'9 8.7
2015-Mar-30 05:34N 67°20' E 014°20'9 8.8
2015-Mar-30 04:33N 67°13' E 014°07'9 8.9
2015-Mar-30 03:34N 67°05' E 013°56'9 8.7
2015-Mar-30 02:33N 66°60' E 013°38'33 8.3
2015-Mar-29 22:33N 66°30' E 012°59'9 8.4
2015-Mar-29 21:29N 66°21' E 012°58'1 0.1
2015-Mar-29 09:10N 66°20' E 012°56'32 8.4
2015-Mar-29 05:25N 66°51' E 013°18'8 8.3
2015-Mar-29 04:31N 66°57' E 013°29'10 8.9
2015-Mar-29 03:25N 67°02' E 013°49'8 8.8
2015-Mar-29 02:33N 67°08' E 014°02'9 9.0
2015-Mar-29 01:34N 67°16' E 014°13'9 9.3
2015-Mar-29 00:34N 67°24' E 014°26'9 9.1
2015-Mar-28 23:31N 67°33' E 014°30'9 9.0
2015-Mar-28 22:33N 67°42' E 014°31'6 0.2
2015-Mar-27 23:05N 67°48' E 014°32'510.2
2015-Mar-27 22:33N 67°43' E 014°31'1010.1
2015-Mar-27 21:33N 67°33' E 014°30'1010.2
2015-Mar-27 20:33N 67°23' E 014°25'5 5.3
2015-Mar-27 19:34N 67°17' E 014°23'0 0.0
2015-Mar-27 18:34N 67°17' E 014°23'4 4.4
2015-Mar-27 17:34N 67°15' E 014°14'1010.3
2015-Mar-27 16:33N 67°06' E 013°59'1010.1
2015-Mar-27 15:33N 66°60' E 013°39'12 9.6
2015-Mar-27 14:21N 66°51' E 013°19'2010.0
2015-Mar-27 12:20N 66°32' E 012°60'810.0
2015-Mar-27 11:34N 66°25' E 012°59'2310.0
2015-Mar-27 09:18N 66°04' E 012°39'48 9.5
2015-Mar-27 04:15N 65°18' E 011°60'710.3
2015-Mar-27 03:33N 65°12' E 011°52'1010.1
2015-Mar-27 02:33N 65°02' E 011°43'10 9.7
2015-Mar-27 01:33N 64°56' E 011°26'1010.2
2015-Mar-27 00:33N 64°49' E 011°09'65 8.9
2015-Mar-26 17:17N 63°53' E 009°52'58 1.9
2015-Mar-25 10:13N 64°43' E 010°58'6 9.5
2015-Mar-25 09:33N 64°48' E 011°07'9 8.8
2015-Mar-25 08:34N 64°54' E 011°22'9 9.0
2015-Mar-25 07:33N 65°00' E 011°38'9 8.7
2015-Mar-25 06:32N 65°08' E 011°49'72 3.1
2015-Mar-24 07:17N 66°17' E 012°38'7 9.1
2015-Mar-24 06:34N 66°20' E 012°52'10 8.0
2015-Mar-24 05:19N 66°30' E 012°59'26 8.3
2015-Mar-24 02:09N 66°54' E 013°25'4 7.4
2015-Mar-24 01:34N 66°58' E 013°30'9 8.2
2015-Mar-24 00:31N 67°02' E 013°49'9 9.0
2015-Mar-23 23:33N 67°09' E 014°02'10 9.9
2015-Mar-23 22:34N 67°18' E 014°16'10 9.6
2015-Mar-23 21:34N 67°26' E 014°27'12 9.9
2015-Mar-23 20:24N 67°38' E 014°31'8 9.0
2015-Mar-23 19:29N 67°46' E 014°32'8 8.3
2015-Mar-23 18:34N 67°52' E 014°43'9 8.5
2015-Mar-23 17:34N 68°01' E 014°46'9 8.5
2015-Mar-23 16:31N 68°09' E 014°51'16 0.7
2015-Mar-22 19:07N 67°54' E 014°44'5 8.6
2015-Mar-22 18:34N 67°50' E 014°36'8 7.8
2015-Mar-22 17:33N 67°42' E 014°31'6 6.2
2015-Mar-22 16:33N 67°37' E 014°41'9 7.0
2015-Mar-22 15:14N 67°36' E 015°05'5 7.2
2015-Mar-22 14:33N 67°33' E 015°14'2 1.7
2015-Mar-22 13:32N 67°32' E 015°19'8 8.6
2015-Mar-22 12:34N 67°35' E 014°58'10 9.5
2015-Mar-22 11:34N 67°30' E 014°38'9 8.6
2015-Mar-22 10:34N 67°23' E 014°25'9 8.7
2015-Mar-22 09:34N 67°15' E 014°13'9 8.6
2015-Mar-22 08:33N 67°08' E 014°01'4 3.8
2015-Mar-22 07:27N 67°06' E 013°52'10 7.7
2015-Mar-22 06:11N 66°58' E 013°37'25 8.1
2015-Mar-22 03:05N 66°36' E 013°04'6 7.8
2015-Mar-22 02:16N 66°30' E 012°58'6 9.2
2015-Mar-22 01:34N 66°24' E 012°58'93 7.7
2015-Mar-21 13:32N 64°59' E 011°26'3 3.2
2015-Mar-21 12:34N 64°57' E 011°22'0 0.0
2015-Mar-21 11:34N 64°57' E 011°22'0 0.0
2015-Mar-21 10:34N 64°57' E 011°22'0 0.1
2015-Mar-21 09:34N 64°57' E 011°22'2 1.6
2015-Mar-21 08:34N 64°55' E 011°21'7 7.3
2015-Mar-21 07:33N 64°50' E 011°10'70 3.6
2015-Mar-20 12:05N 63°51' E 009°40'  

Dump ship's entire track history